sensor_id;sensor_type;location;lat;lon;timestamp;temperature;humidity
7046;DHT22;3564;53.326;10.356;2023-09-08T00:01:57;21.80;99.00
7046;DHT22;3564;53.326;10.356;2023-09-08T00:04:22;21.80;99.00
7046;DHT22;3564;53.326;10.356;2023-09-08T00:06:48;21.70;99.10
7046;DHT22;3564;53.326;10.356;2023-09-08T00:09:14;21.60;99.30
7046;DHT22;3564;53.326;10.356;2023-09-08T00:11:39;21.60;99.40
7046;DHT22;3564;53.326;10.356;2023-09-08T00:14:05;21.70;99.10
7046;DHT22;3564;53.326;10.356;2023-09-08T00:16:30;21.60;99.10
7046;DHT22;3564;53.326;10.356;2023-09-08T00:18:57;21.60;99.00
7046;DHT22;3564;53.326;10.356;2023-09-08T00:21:27;21.70;99.00
7046;DHT22;3564;53.326;10.356;2023-09-08T00:23:53;21.70;98.90
7046;DHT22;3564;53.326;10.356;2023-09-08T00:26:21;21.70;98.90
7046;DHT22;3564;53.326;10.356;2023-09-08T00:28:48;21.60;98.90
7046;DHT22;3564;53.326;10.356;2023-09-08T00:31:16;21.70;99.10
7046;DHT22;3564;53.326;10.356;2023-09-08T00:33:42;21.70;99.10
7046;DHT22;3564;53.326;10.356;2023-09-08T00:36:09;21.70;99.10
7046;DHT22;3564;53.326;10.356;2023-09-08T00:38:38;21.60;99.20
7046;DHT22;3564;53.326;10.356;2023-09-08T00:41:07;21.70;98.90
7046;DHT22;3564;53.326;10.356;2023-09-08T00:43:32;21.70;98.80
7046;DHT22;3564;53.326;10.356;2023-09-08T00:45:58;21.70;98.90
7046;DHT22;3564;53.326;10.356;2023-09-08T00:48:25;21.70;98.90
7046;DHT22;3564;53.326;10.356;2023-09-08T00:50:51;21.70;98.90
7046;DHT22;3564;53.326;10.356;2023-09-08T00:53:20;21.60;98.80
7046;DHT22;3564;53.326;10.356;2023-09-08T00:55:46;21.60;98.90
7046;DHT22;3564;53.326;10.356;2023-09-08T00:58:11;21.50;98.90
7046;DHT22;3564;53.326;10.356;2023-09-08T01:00:37;21.50;98.90
7046;DHT22;3564;53.326;10.356;2023-09-08T01:03:03;21.50;99.00
7046;DHT22;3564;53.326;10.356;2023-09-08T01:05:29;21.50;99.00
7046;DHT22;3564;53.326;10.356;2023-09-08T01:07:55;21.50;98.90
7046;DHT22;3564;53.326;10.356;2023-09-08T01:10:21;21.50;99.00
7046;DHT22;3564;53.326;10.356;2023-09-08T01:12:47;21.50;98.90
7046;DHT22;3564;53.326;10.356;2023-09-08T01:15:12;21.50;98.90
7046;DHT22;3564;53.326;10.356;2023-09-08T01:17:38;21.50;98.80
7046;DHT22;3564;53.326;10.356;2023-09-08T01:20:11;21.60;98.80
7046;DHT22;3564;53.326;10.356;2023-09-08T01:23:10;21.50;98.70
7046;DHT22;3564;53.326;10.356;2023-09-08T01:25:59;21.50;98.60
7046;DHT22;3564;53.326;10.356;2023-09-08T01:28:29;21.40;98.70
7046;DHT22;3564;53.326;10.356;2023-09-08T01:31:07;21.40;99.00
7046;DHT22;3564;53.326;10.356;2023-09-08T01:33:34;21.30;98.90
7046;DHT22;3564;53.326;10.356;2023-09-08T01:36:00;21.20;98.90
7046;DHT22;3564;53.326;10.356;2023-09-08T01:38:26;21.10;99.20
7046;DHT22;3564;53.326;10.356;2023-09-08T01:40:51;21.10;99.20
7046;DHT22;3564;53.326;10.356;2023-09-08T01:43:17;21.10;99.10
7046;DHT22;3564;53.326;10.356;2023-09-08T01:45:42;21.10;99.10
7046;DHT22;3564;53.326;10.356;2023-09-08T01:48:08;21.10;99.10
7046;DHT22;3564;53.326;10.356;2023-09-08T01:50:33;21.10;99.10
7046;DHT22;3564;53.326;10.356;2023-09-08T01:52:59;21.10;99.10
7046;DHT22;3564;53.326;10.356;2023-09-08T01:55:25;21.10;99.10
7046;DHT22;3564;53.326;10.356;2023-09-08T01:57:50;21.20;99.00
7046;DHT22;3564;53.326;10.356;2023-09-08T02:00:17;21.20;99.00
7046;DHT22;3564;53.326;10.356;2023-09-08T02:02:42;21.10;99.00
7046;DHT22;3564;53.326;10.356;2023-09-08T02:05:08;21.10;99.00
7046;DHT22;3564;53.326;10.356;2023-09-08T02:07:34;21.10;99.00
7046;DHT22;3564;53.326;10.356;2023-09-08T02:10:00;21.10;99.00
7046;DHT22;3564;53.326;10.356;2023-09-08T02:12:25;21.10;99.00
7046;DHT22;3564;53.326;10.356;2023-09-08T02:14:51;21.10;99.00
7046;DHT22;3564;53.326;10.356;2023-09-08T02:17:17;21.10;99.10
7046;DHT22;3564;53.326;10.356;2023-09-08T02:19:43;21.00;99.10
7046;DHT22;3564;53.326;10.356;2023-09-08T02:22:09;21.00;99.10
7046;DHT22;3564;53.326;10.356;2023-09-08T02:24:34;21.00;99.20
7046;DHT22;3564;53.326;10.356;2023-09-08T02:27:02;21.00;99.30
7046;DHT22;3564;53.326;10.356;2023-09-08T02:29:28;21.00;99.30
7046;DHT22;3564;53.326;10.356;2023-09-08T02:31:54;20.90;99.30
7046;DHT22;3564;53.326;10.356;2023-09-08T02:34:19;20.90;99.30
7046;DHT22;3564;53.326;10.356;2023-09-08T02:36:45;20.90;99.40
7046;DHT22;3564;53.326;10.356;2023-09-08T02:39:13;20.80;99.50
7046;DHT22;3564;53.326;10.356;2023-09-08T02:41:39;20.80;99.60
7046;DHT22;3564;53.326;10.356;2023-09-08T02:44:05;20.70;99.70
7046;DHT22;3564;53.326;10.356;2023-09-08T02:46:30;20.60;99.90
7046;DHT22;3564;53.326;10.356;2023-09-08T02:48:56;20.50;99.90
7046;DHT22;3564;53.326;10.356;2023-09-08T02:51:21;20.50;99.90
7046;DHT22;3564;53.326;10.356;2023-09-08T02:53:47;20.40;99.90
7046;DHT22;3564;53.326;10.356;2023-09-08T02:56:13;20.40;99.90
7046;DHT22;3564;53.326;10.356;2023-09-08T02:58:38;20.30;99.90
7046;DHT22;3564;53.326;10.356;2023-09-08T03:01:11;20.30;99.90
7046;DHT22;3564;53.326;10.356;2023-09-08T03:03:39;20.20;99.90
7046;DHT22;3564;53.326;10.356;2023-09-08T03:06:04;20.20;99.90
7046;DHT22;3564;53.326;10.356;2023-09-08T03:08:30;20.10;99.90
7046;DHT22;3564;53.326;10.356;2023-09-08T03:10:57;20.10;99.90
7046;DHT22;3564;53.326;10.356;2023-09-08T03:13:22;20.10;99.90
7046;DHT22;3564;53.326;10.356;2023-09-08T03:15:48;20.00;99.90
7046;DHT22;3564;53.326;10.356;2023-09-08T03:18:14;20.10;99.90
7046;DHT22;3564;53.326;10.356;2023-09-08T03:20:39;20.10;99.90
7046;DHT22;3564;53.326;10.356;2023-09-08T03:23:05;20.10;99.90
7046;DHT22;3564;53.326;10.356;2023-09-08T03:25:31;20.10;99.90
7046;DHT22;3564;53.326;10.356;2023-09-08T03:27:56;20.20;99.90
7046;DHT22;3564;53.326;10.356;2023-09-08T03:30:22;20.20;99.90
7046;DHT22;3564;53.326;10.356;2023-09-08T03:32:48;20.20;99.90
7046;DHT22;3564;53.326;10.356;2023-09-08T03:35:13;20.20;99.90
7046;DHT22;3564;53.326;10.356;2023-09-08T03:37:39;20.30;99.90
7046;DHT22;3564;53.326;10.356;2023-09-08T03:40:05;20.30;99.90
7046;DHT22;3564;53.326;10.356;2023-09-08T03:42:32;20.30;99.90
7046;DHT22;3564;53.326;10.356;2023-09-08T03:44:57;20.30;99.90
7046;DHT22;3564;53.326;10.356;2023-09-08T03:47:23;20.30;99.90
7046;DHT22;3564;53.326;10.356;2023-09-08T03:49:48;20.30;99.90
7046;DHT22;3564;53.326;10.356;2023-09-08T03:52:14;20.30;99.90
7046;DHT22;3564;53.326;10.356;2023-09-08T03:54:39;20.30;99.90
7046;DHT22;3564;53.326;10.356;2023-09-08T03:57:05;20.30;99.90
7046;DHT22;3564;53.326;10.356;2023-09-08T03:59:31;20.30;99.90
7046;DHT22;3564;53.326;10.356;2023-09-08T04:01:56;20.30;99.90
7046;DHT22;3564;53.326;10.356;2023-09-08T04:04:22;20.30;99.90
7046;DHT22;3564;53.326;10.356;2023-09-08T04:06:48;20.30;99.90
7046;DHT22;3564;53.326;10.356;2023-09-08T04:09:14;20.30;99.90
7046;DHT22;3564;53.326;10.356;2023-09-08T04:11:39;20.30;99.90
7046;DHT22;3564;53.326;10.356;2023-09-08T04:14:05;20.30;99.90
7046;DHT22;3564;53.326;10.356;2023-09-08T04:16:30;20.20;99.90
7046;DHT22;3564;53.326;10.356;2023-09-08T04:18:56;20.20;99.90
7046;DHT22;3564;53.326;10.356;2023-09-08T04:21:22;20.20;99.90
7046;DHT22;3564;53.326;10.356;2023-09-08T04:23:47;20.20;99.90
7046;DHT22;3564;53.326;10.356;2023-09-08T04:26:13;20.10;99.90
7046;DHT22;3564;53.326;10.356;2023-09-08T04:28:38;20.10;99.90
7046;DHT22;3564;53.326;10.356;2023-09-08T04:31:04;20.10;99.90
7046;DHT22;3564;53.326;10.356;2023-09-08T04:33:30;20.00;99.90
7046;DHT22;3564;53.326;10.356;2023-09-08T04:35:55;20.00;99.90
7046;DHT22;3564;53.326;10.356;2023-09-08T04:38:21;19.90;99.90
7046;DHT22;3564;53.326;10.356;2023-09-08T04:40:47;19.80;99.90
7046;DHT22;3564;53.326;10.356;2023-09-08T04:43:12;19.80;99.90
7046;DHT22;3564;53.326;10.356;2023-09-08T04:45:38;19.70;99.90
7046;DHT22;3564;53.326;10.356;2023-09-08T04:48:04;19.70;99.90
7046;DHT22;3564;53.326;10.356;2023-09-08T04:50:30;19.60;99.90
7046;DHT22;3564;53.326;10.356;2023-09-08T04:52:56;19.60;99.90
7046;DHT22;3564;53.326;10.356;2023-09-08T04:55:21;19.50;99.90
7046;DHT22;3564;53.326;10.356;2023-09-08T04:57:47;19.50;99.90
7046;DHT22;3564;53.326;10.356;2023-09-08T05:00:13;19.50;99.90
7046;DHT22;3564;53.326;10.356;2023-09-08T05:02:39;19.50;99.90
7046;DHT22;3564;53.326;10.356;2023-09-08T05:05:04;19.50;99.90
7046;DHT22;3564;53.326;10.356;2023-09-08T05:07:30;19.50;99.90
7046;DHT22;3564;53.326;10.356;2023-09-08T05:09:55;19.50;99.90
7046;DHT22;3564;53.326;10.356;2023-09-08T05:12:21;19.50;99.90
7046;DHT22;3564;53.326;10.356;2023-09-08T05:14:48;19.50;99.90
7046;DHT22;3564;53.326;10.356;2023-09-08T05:17:14;19.60;99.90
7046;DHT22;3564;53.326;10.356;2023-09-08T05:19:39;19.60;99.90
7046;DHT22;3564;53.326;10.356;2023-09-08T05:22:05;19.60;99.90
7046;DHT22;3564;53.326;10.356;2023-09-08T05:24:32;19.60;99.90
7046;DHT22;3564;53.326;10.356;2023-09-08T05:26:58;19.70;99.90
7046;DHT22;3564;53.326;10.356;2023-09-08T05:29:23;19.70;99.90
7046;DHT22;3564;53.326;10.356;2023-09-08T05:31:49;19.70;99.90
7046;DHT22;3564;53.326;10.356;2023-09-08T05:34:15;19.80;99.90
7046;DHT22;3564;53.326;10.356;2023-09-08T05:36:41;19.80;99.90
7046;DHT22;3564;53.326;10.356;2023-09-08T05:39:08;19.80;99.90
7046;DHT22;3564;53.326;10.356;2023-09-08T05:41:34;19.90;99.90
7046;DHT22;3564;53.326;10.356;2023-09-08T05:44:00;19.90;99.90
7046;DHT22;3564;53.326;10.356;2023-09-08T05:46:26;19.90;99.90
7046;DHT22;3564;53.326;10.356;2023-09-08T05:48:52;19.90;99.90
7046;DHT22;3564;53.326;10.356;2023-09-08T05:51:18;20.00;99.90
7046;DHT22;3564;53.326;10.356;2023-09-08T05:53:43;20.00;99.90
7046;DHT22;3564;53.326;10.356;2023-09-08T05:56:10;20.00;99.90
7046;DHT22;3564;53.326;10.356;2023-09-08T05:58:35;20.00;99.90
7046;DHT22;3564;53.326;10.356;2023-09-08T06:01:02;20.00;99.90
7046;DHT22;3564;53.326;10.356;2023-09-08T06:03:28;20.00;99.90
7046;DHT22;3564;53.326;10.356;2023-09-08T06:05:54;20.00;99.90
7046;DHT22;3564;53.326;10.356;2023-09-08T06:08:19;20.00;99.90
7046;DHT22;3564;53.326;10.356;2023-09-08T06:10:45;20.00;99.90
7046;DHT22;3564;53.326;10.356;2023-09-08T06:13:11;20.00;99.90
7046;DHT22;3564;53.326;10.356;2023-09-08T06:15:37;20.00;99.90
7046;DHT22;3564;53.326;10.356;2023-09-08T06:18:05;20.00;99.90
7046;DHT22;3564;53.326;10.356;2023-09-08T06:20:31;20.10;99.90
7046;DHT22;3564;53.326;10.356;2023-09-08T06:22:56;20.10;99.90
7046;DHT22;3564;53.326;10.356;2023-09-08T06:25:22;20.10;99.90
7046;DHT22;3564;53.326;10.356;2023-09-08T06:27:48;20.10;99.90
7046;DHT22;3564;53.326;10.356;2023-09-08T06:30:13;20.20;99.90
7046;DHT22;3564;53.326;10.356;2023-09-08T06:32:42;20.20;99.90
7046;DHT22;3564;53.326;10.356;2023-09-08T06:35:08;20.20;99.90
7046;DHT22;3564;53.326;10.356;2023-09-08T06:37:37;20.30;99.90
7046;DHT22;3564;53.326;10.356;2023-09-08T06:40:04;20.30;99.90
7046;DHT22;3564;53.326;10.356;2023-09-08T06:42:30;20.30;99.90
7046;DHT22;3564;53.326;10.356;2023-09-08T06:44:55;20.40;99.90
7046;DHT22;3564;53.326;10.356;2023-09-08T06:47:21;20.40;99.90
7046;DHT22;3564;53.326;10.356;2023-09-08T06:49:48;20.50;99.90
7046;DHT22;3564;53.326;10.356;2023-09-08T06:52:13;20.60;99.90
7046;DHT22;3564;53.326;10.356;2023-09-08T06:54:39;20.60;99.90
7046;DHT22;3564;53.326;10.356;2023-09-08T06:57:04;20.70;99.90
7046;DHT22;3564;53.326;10.356;2023-09-08T06:59:30;20.70;99.90
7046;DHT22;3564;53.326;10.356;2023-09-08T07:01:55;20.80;99.90
7046;DHT22;3564;53.326;10.356;2023-09-08T07:04:21;20.80;99.90
7046;DHT22;3564;53.326;10.356;2023-09-08T07:06:47;20.90;99.90
7046;DHT22;3564;53.326;10.356;2023-09-08T07:09:13;20.90;99.90
7046;DHT22;3564;53.326;10.356;2023-09-08T07:11:38;20.90;99.90
7046;DHT22;3564;53.326;10.356;2023-09-08T07:14:05;21.00;99.90
7046;DHT22;3564;53.326;10.356;2023-09-08T07:16:31;21.00;99.90
7046;DHT22;3564;53.326;10.356;2023-09-08T07:18:56;21.10;99.90
7046;DHT22;3564;53.326;10.356;2023-09-08T07:21:22;21.10;99.90
7046;DHT22;3564;53.326;10.356;2023-09-08T07:23:47;21.20;99.90
7046;DHT22;3564;53.326;10.356;2023-09-08T07:26:13;21.20;99.90
7046;DHT22;3564;53.326;10.356;2023-09-08T07:28:39;21.30;99.90
7046;DHT22;3564;53.326;10.356;2023-09-08T07:31:05;21.30;99.90
7046;DHT22;3564;53.326;10.356;2023-09-08T07:33:30;21.30;99.90
7046;DHT22;3564;53.326;10.356;2023-09-08T07:35:57;21.40;99.90
7046;DHT22;3564;53.326;10.356;2023-09-08T07:38:22;21.40;99.90
7046;DHT22;3564;53.326;10.356;2023-09-08T07:40:48;21.40;99.90
7046;DHT22;3564;53.326;10.356;2023-09-08T07:43:13;21.50;99.90
7046;DHT22;3564;53.326;10.356;2023-09-08T07:45:39;21.50;99.90
7046;DHT22;3564;53.326;10.356;2023-09-08T07:48:06;21.60;99.90
7046;DHT22;3564;53.326;10.356;2023-09-08T07:50:32;21.70;99.90
7046;DHT22;3564;53.326;10.356;2023-09-08T07:52:57;21.70;99.90
7046;DHT22;3564;53.326;10.356;2023-09-08T07:55:24;21.80;99.90
7046;DHT22;3564;53.326;10.356;2023-09-08T07:57:52;21.80;99.90
7046;DHT22;3564;53.326;10.356;2023-09-08T08:00:18;21.90;99.90
7046;DHT22;3564;53.326;10.356;2023-09-08T08:02:48;21.90;99.90
7046;DHT22;3564;53.326;10.356;2023-09-08T08:05:15;22.00;99.90
7046;DHT22;3564;53.326;10.356;2023-09-08T08:07:42;22.00;99.90
7046;DHT22;3564;53.326;10.356;2023-09-08T08:10:10;22.10;99.90
7046;DHT22;3564;53.326;10.356;2023-09-08T08:12:36;22.10;99.90
7046;DHT22;3564;53.326;10.356;2023-09-08T08:15:03;22.20;99.90
7046;DHT22;3564;53.326;10.356;2023-09-08T08:17:30;22.20;99.90
7046;DHT22;3564;53.326;10.356;2023-09-08T08:19:56;22.30;99.90
7046;DHT22;3564;53.326;10.356;2023-09-08T08:22:32;22.30;99.90
7046;DHT22;3564;53.326;10.356;2023-09-08T08:24:58;22.40;99.90
7046;DHT22;3564;53.326;10.356;2023-09-08T08:27:24;22.50;99.90
7046;DHT22;3564;53.326;10.356;2023-09-08T08:29:49;22.50;99.90
7046;DHT22;3564;53.326;10.356;2023-09-08T08:32:17;22.60;99.90
7046;DHT22;3564;53.326;10.356;2023-09-08T08:34:42;22.70;99.90
7046;DHT22;3564;53.326;10.356;2023-09-08T08:37:08;22.80;99.90
7046;DHT22;3564;53.326;10.356;2023-09-08T08:39:34;22.80;99.90
7046;DHT22;3564;53.326;10.356;2023-09-08T08:42:07;22.90;99.90
7046;DHT22;3564;53.326;10.356;2023-09-08T08:44:34;23.00;99.90
7046;DHT22;3564;53.326;10.356;2023-09-08T08:47:02;23.00;99.90
7046;DHT22;3564;53.326;10.356;2023-09-08T08:49:30;23.10;99.90
7046;DHT22;3564;53.326;10.356;2023-09-08T08:51:58;23.20;99.90
7046;DHT22;3564;53.326;10.356;2023-09-08T08:54:24;23.30;99.90
7046;DHT22;3564;53.326;10.356;2023-09-08T08:56:50;23.30;99.90
7046;DHT22;3564;53.326;10.356;2023-09-08T08:59:16;23.40;99.90
7046;DHT22;3564;53.326;10.356;2023-09-08T09:01:42;23.50;99.90
7046;DHT22;3564;53.326;10.356;2023-09-08T09:04:08;23.60;99.90
7046;DHT22;3564;53.326;10.356;2023-09-08T09:06:35;23.70;99.90
7046;DHT22;3564;53.326;10.356;2023-09-08T09:09:02;23.80;99.90
7046;DHT22;3564;53.326;10.356;2023-09-08T09:11:29;23.90;99.90
7046;DHT22;3564;53.326;10.356;2023-09-08T09:13:57;24.00;99.90
7046;DHT22;3564;53.326;10.356;2023-09-08T09:16:23;24.10;99.90
7046;DHT22;3564;53.326;10.356;2023-09-08T09:18:59;24.20;99.90
7046;DHT22;3564;53.326;10.356;2023-09-08T09:24:07;24.40;99.90
7046;DHT22;3564;53.326;10.356;2023-09-08T09:26:32;24.50;99.90
7046;DHT22;3564;53.326;10.356;2023-09-08T09:28:58;24.60;99.90
7046;DHT22;3564;53.326;10.356;2023-09-08T09:31:25;24.60;99.90
7046;DHT22;3564;53.326;10.356;2023-09-08T09:34:04;24.70;99.90
7046;DHT22;3564;53.326;10.356;2023-09-08T09:36:30;24.80;99.90
7046;DHT22;3564;53.326;10.356;2023-09-08T09:39:00;24.90;99.90
7046;DHT22;3564;53.326;10.356;2023-09-08T09:41:29;25.00;99.90
7046;DHT22;3564;53.326;10.356;2023-09-08T09:43:57;25.10;99.90
7046;DHT22;3564;53.326;10.356;2023-09-08T09:46:23;25.20;99.90
7046;DHT22;3564;53.326;10.356;2023-09-08T09:48:54;25.30;99.90
7046;DHT22;3564;53.326;10.356;2023-09-08T09:51:22;25.40;99.90
7046;DHT22;3564;53.326;10.356;2023-09-08T09:53:50;25.50;99.90
7046;DHT22;3564;53.326;10.356;2023-09-08T09:56:19;25.70;99.90
7046;DHT22;3564;53.326;10.356;2023-09-08T09:58:45;25.80;99.90
7046;DHT22;3564;53.326;10.356;2023-09-08T10:01:13;25.90;99.90
7046;DHT22;3564;53.326;10.356;2023-09-08T10:03:39;26.00;99.90
7046;DHT22;3564;53.326;10.356;2023-09-08T10:06:05;26.20;99.90
7046;DHT22;3564;53.326;10.356;2023-09-08T10:08:33;26.30;99.90
7046;DHT22;3564;53.326;10.356;2023-09-08T10:11:07;26.40;99.40
7046;DHT22;3564;53.326;10.356;2023-09-08T10:13:44;26.50;99.50
7046;DHT22;3564;53.326;10.356;2023-09-08T10:16:13;26.70;99.40
7046;DHT22;3564;53.326;10.356;2023-09-08T10:18:44;26.90;98.80
7046;DHT22;3564;53.326;10.356;2023-09-08T10:21:13;27.00;98.80
7046;DHT22;3564;53.326;10.356;2023-09-08T10:23:49;27.10;98.70
7046;DHT22;3564;53.326;10.356;2023-09-08T10:26:19;27.20;98.50
7046;DHT22;3564;53.326;10.356;2023-09-08T10:28:47;27.30;98.00
7046;DHT22;3564;53.326;10.356;2023-09-08T10:31:14;27.40;97.90
7046;DHT22;3564;53.326;10.356;2023-09-08T10:33:41;27.60;97.50
7046;DHT22;3564;53.326;10.356;2023-09-08T10:36:08;27.70;97.30
7046;DHT22;3564;53.326;10.356;2023-09-08T10:38:35;27.80;97.50
7046;DHT22;3564;53.326;10.356;2023-09-08T10:44:00;28.00;97.70
7046;DHT22;3564;53.326;10.356;2023-09-08T10:46:28;28.10;97.10
7046;DHT22;3564;53.326;10.356;2023-09-08T10:48:55;28.10;96.80
7046;DHT22;3564;53.326;10.356;2023-09-08T10:51:22;28.20;96.60
7046;DHT22;3564;53.326;10.356;2023-09-08T10:53:49;28.30;96.70
7046;DHT22;3564;53.326;10.356;2023-09-08T10:56:16;28.30;96.40
7046;DHT22;3564;53.326;10.356;2023-09-08T10:58:42;28.30;95.80
7046;DHT22;3564;53.326;10.356;2023-09-08T11:01:15;28.40;95.60
7046;DHT22;3564;53.326;10.356;2023-09-08T11:06:07;28.50;95.30
7046;DHT22;3564;53.326;10.356;2023-09-08T11:08:37;28.60;95.10
7046;DHT22;3564;53.326;10.356;2023-09-08T11:11:03;28.70;95.00
7046;DHT22;3564;53.326;10.356;2023-09-08T11:13:28;28.80;95.10
7046;DHT22;3564;53.326;10.356;2023-09-08T11:15:55;28.80;95.20
7046;DHT22;3564;53.326;10.356;2023-09-08T11:18:31;28.90;94.50
7046;DHT22;3564;53.326;10.356;2023-09-08T11:20:57;28.90;94.40
7046;DHT22;3564;53.326;10.356;2023-09-08T11:23:24;28.90;93.80
7046;DHT22;3564;53.326;10.356;2023-09-08T11:25:51;28.90;93.80
7046;DHT22;3564;53.326;10.356;2023-09-08T11:28:18;28.90;93.60
7046;DHT22;3564;53.326;10.356;2023-09-08T11:30:48;29.00;93.50
7046;DHT22;3564;53.326;10.356;2023-09-08T11:33:18;29.00;92.80
7046;DHT22;3564;53.326;10.356;2023-09-08T11:35:48;29.10;92.90
7046;DHT22;3564;53.326;10.356;2023-09-08T11:38:14;29.10;92.70
7046;DHT22;3564;53.326;10.356;2023-09-08T11:40:40;29.10;92.50
7046;DHT22;3564;53.326;10.356;2023-09-08T11:43:06;29.10;92.30
7046;DHT22;3564;53.326;10.356;2023-09-08T11:45:35;29.10;92.60
7046;DHT22;3564;53.326;10.356;2023-09-08T11:48:01;29.10;92.70
7046;DHT22;3564;53.326;10.356;2023-09-08T11:50:27;29.10;92.40
7046;DHT22;3564;53.326;10.356;2023-09-08T11:52:53;29.10;92.10
7046;DHT22;3564;53.326;10.356;2023-09-08T11:55:20;29.10;92.00
7046;DHT22;3564;53.326;10.356;2023-09-08T11:57:49;29.10;91.10
7046;DHT22;3564;53.326;10.356;2023-09-08T12:00:17;29.20;91.70
7046;DHT22;3564;53.326;10.356;2023-09-08T12:02:46;29.10;90.30
7046;DHT22;3564;53.326;10.356;2023-09-08T12:05:26;29.20;91.00
7046;DHT22;3564;53.326;10.356;2023-09-08T12:07:53;29.20;91.00
7046;DHT22;3564;53.326;10.356;2023-09-08T12:10:20;29.20;90.70
7046;DHT22;3564;53.326;10.356;2023-09-08T12:12:54;29.20;90.90
7046;DHT22;3564;53.326;10.356;2023-09-08T12:15:34;29.20;90.90
7046;DHT22;3564;53.326;10.356;2023-09-08T12:18:04;29.20;91.40
7046;DHT22;3564;53.326;10.356;2023-09-08T12:20:31;29.10;91.80
7046;DHT22;3564;53.326;10.356;2023-09-08T12:23:00;29.10;90.50
7046;DHT22;3564;53.326;10.356;2023-09-08T12:25:27;29.10;90.20
7046;DHT22;3564;53.326;10.356;2023-09-08T12:27:54;29.10;90.20
7046;DHT22;3564;53.326;10.356;2023-09-08T12:30:22;29.10;90.80
7046;DHT22;3564;53.326;10.356;2023-09-08T12:32:56;29.00;90.50
7046;DHT22;3564;53.326;10.356;2023-09-08T12:35:23;29.10;90.50
7046;DHT22;3564;53.326;10.356;2023-09-08T12:37:56;29.00;90.90
7046;DHT22;3564;53.326;10.356;2023-09-08T12:40:23;29.00;91.20
7046;DHT22;3564;53.326;10.356;2023-09-08T12:42:49;29.00;91.10
7046;DHT22;3564;53.326;10.356;2023-09-08T12:45:14;29.00;91.30
7046;DHT22;3564;53.326;10.356;2023-09-08T12:47:40;29.00;91.50
7046;DHT22;3564;53.326;10.356;2023-09-08T12:50:06;29.00;91.30
7046;DHT22;3564;53.326;10.356;2023-09-08T12:52:32;29.00;91.50
7046;DHT22;3564;53.326;10.356;2023-09-08T12:54:58;29.00;92.10
7046;DHT22;3564;53.326;10.356;2023-09-08T12:57:23;29.10;91.90
7046;DHT22;3564;53.326;10.356;2023-09-08T12:59:49;29.10;90.60
7046;DHT22;3564;53.326;10.356;2023-09-08T13:02:17;29.20;91.10
7046;DHT22;3564;53.326;10.356;2023-09-08T13:04:43;29.20;91.00
7046;DHT22;3564;53.326;10.356;2023-09-08T13:07:16;29.20;91.00
7046;DHT22;3564;53.326;10.356;2023-09-08T13:09:42;29.20;91.10
7046;DHT22;3564;53.326;10.356;2023-09-08T13:12:08;29.20;91.50
7046;DHT22;3564;53.326;10.356;2023-09-08T13:14:38;29.30;91.70
7046;DHT22;3564;53.326;10.356;2023-09-08T13:17:04;29.30;91.50
7046;DHT22;3564;53.326;10.356;2023-09-08T13:19:30;29.30;90.90
7046;DHT22;3564;53.326;10.356;2023-09-08T13:21:56;29.30;90.80
7046;DHT22;3564;53.326;10.356;2023-09-08T13:24:22;29.30;90.90
7046;DHT22;3564;53.326;10.356;2023-09-08T13:26:48;29.30;90.70
7046;DHT22;3564;53.326;10.356;2023-09-08T13:29:14;29.40;91.10
7046;DHT22;3564;53.326;10.356;2023-09-08T13:31:39;29.40;90.50
7046;DHT22;3564;53.326;10.356;2023-09-08T13:34:05;29.40;90.40
7046;DHT22;3564;53.326;10.356;2023-09-08T13:36:31;29.40;90.30
7046;DHT22;3564;53.326;10.356;2023-09-08T13:38:57;29.50;90.60
7046;DHT22;3564;53.326;10.356;2023-09-08T13:41:23;29.50;90.40
7046;DHT22;3564;53.326;10.356;2023-09-08T13:43:49;29.50;90.60
7046;DHT22;3564;53.326;10.356;2023-09-08T13:46:14;29.60;91.30
7046;DHT22;3564;53.326;10.356;2023-09-08T13:48:40;29.60;90.90
7046;DHT22;3564;53.326;10.356;2023-09-08T13:51:06;29.60;90.60
7046;DHT22;3564;53.326;10.356;2023-09-08T13:53:31;29.70;90.30
7046;DHT22;3564;53.326;10.356;2023-09-08T13:55:57;29.70;90.20
7046;DHT22;3564;53.326;10.356;2023-09-08T13:58:22;29.80;90.20
7046;DHT22;3564;53.326;10.356;2023-09-08T14:00:48;29.70;90.30
7046;DHT22;3564;53.326;10.356;2023-09-08T14:03:17;29.80;90.90
7046;DHT22;3564;53.326;10.356;2023-09-08T14:05:43;29.90;90.30
7046;DHT22;3564;53.326;10.356;2023-09-08T14:08:09;29.90;90.20
7046;DHT22;3564;53.326;10.356;2023-09-08T14:10:35;30.00;90.00
7046;DHT22;3564;53.326;10.356;2023-09-08T14:13:00;30.00;89.70
7046;DHT22;3564;53.326;10.356;2023-09-08T14:15:26;30.00;90.10
7046;DHT22;3564;53.326;10.356;2023-09-08T14:17:52;30.00;90.20
7046;DHT22;3564;53.326;10.356;2023-09-08T14:20:18;30.10;90.30
7046;DHT22;3564;53.326;10.356;2023-09-08T14:22:44;30.20;89.10
7046;DHT22;3564;53.326;10.356;2023-09-08T14:25:09;30.20;88.80
7046;DHT22;3564;53.326;10.356;2023-09-08T14:27:35;30.40;88.20
7046;DHT22;3564;53.326;10.356;2023-09-08T14:30:03;30.50;88.20
7046;DHT22;3564;53.326;10.356;2023-09-08T14:32:29;30.60;87.10
7046;DHT22;3564;53.326;10.356;2023-09-08T14:34:55;30.70;87.60
7046;DHT22;3564;53.326;10.356;2023-09-08T14:37:21;30.80;88.30
7046;DHT22;3564;53.326;10.356;2023-09-08T14:39:48;31.00;88.50
7046;DHT22;3564;53.326;10.356;2023-09-08T14:42:13;31.10;88.50
7046;DHT22;3564;53.326;10.356;2023-09-08T14:44:40;31.20;87.80
7046;DHT22;3564;53.326;10.356;2023-09-08T14:47:06;31.60;87.50
7046;DHT22;3564;53.326;10.356;2023-09-08T14:49:32;32.00;86.60
7046;DHT22;3564;53.326;10.356;2023-09-08T14:51:57;32.50;85.80
7046;DHT22;3564;53.326;10.356;2023-09-08T14:54:23;32.70;85.10
7046;DHT22;3564;53.326;10.356;2023-09-08T14:56:49;33.30;84.30
7046;DHT22;3564;53.326;10.356;2023-09-08T14:59:15;34.20;82.30
7046;DHT22;3564;53.326;10.356;2023-09-08T15:01:41;35.10;81.40
7046;DHT22;3564;53.326;10.356;2023-09-08T15:04:08;36.00;79.60
7046;DHT22;3564;53.326;10.356;2023-09-08T15:06:34;36.80;75.90
7046;DHT22;3564;53.326;10.356;2023-09-08T15:08:59;37.70;74.10
7046;DHT22;3564;53.326;10.356;2023-09-08T15:11:25;38.40;73.40
7046;DHT22;3564;53.326;10.356;2023-09-08T15:13:50;39.20;71.10
7046;DHT22;3564;53.326;10.356;2023-09-08T15:16:16;39.90;69.60
7046;DHT22;3564;53.326;10.356;2023-09-08T15:18:42;40.60;67.80
7046;DHT22;3564;53.326;10.356;2023-09-08T15:21:07;41.10;66.50
7046;DHT22;3564;53.326;10.356;2023-09-08T15:23:33;41.60;65.10
7046;DHT22;3564;53.326;10.356;2023-09-08T15:25:59;42.10;63.40
7046;DHT22;3564;53.326;10.356;2023-09-08T15:28:25;42.40;61.00
7046;DHT22;3564;53.326;10.356;2023-09-08T15:30:51;42.80;59.30
7046;DHT22;3564;53.326;10.356;2023-09-08T15:33:18;43.10;58.40
7046;DHT22;3564;53.326;10.356;2023-09-08T15:36:05;43.40;58.70
7046;DHT22;3564;53.326;10.356;2023-09-08T15:38:31;43.70;58.10
7046;DHT22;3564;53.326;10.356;2023-09-08T15:43:31;44.10;56.30
7046;DHT22;3564;53.326;10.356;2023-09-08T15:45:57;44.20;56.00
7046;DHT22;3564;53.326;10.356;2023-09-08T15:48:22;44.30;55.70
7046;DHT22;3564;53.326;10.356;2023-09-08T15:50:48;44.20;55.60
7046;DHT22;3564;53.326;10.356;2023-09-08T15:53:14;44.00;55.60